Time;durP1;ratioP1;P1;durP2;ratioP2;P2;SDS_P1;SDS_P2;PMS_P1;PMS_P2;Temp;Humidity;BMP_temperature;BMP_pressure;BME280_temperature;BME280_humidity;BME280_pressure;Samples;Min_cycle;Max_cycle;Signal;HPM_P1;HPM_P2
2024/02/15 00:01:31;;;;;;;227.90;61.00;;;;;;;;;;4990878;28;20567;-45
2024/02/15 00:03:57;;;;;;;228.50;59.85;;;;;;;;;;4990779;28;20785;-45
2024/02/15 00:06:23;;;;;;;232.00;64.97;;;;;;;;;;4994031;28;20186;-45
2024/02/15 00:08:52;;;;;;;230.98;62.70;;;;;;;;;;4994276;28;20428;-45
2024/02/15 00:11:18;;;;;;;229.10;63.13;;;;;;;;;;4994329;28;20171;-45
2024/02/15 00:13:44;;;;;;;231.20;64.50;;;;;;;;;;4994444;28;20647;-45
2024/02/15 00:16:17;;;;;;;231.77;62.97;;;;;;;;;;4994152;28;20245;-45
2024/02/15 00:18:44;;;;;;;230.32;62.17;;;;;;;;;;4994621;28;20190;-45
2024/02/15 00:21:11;;;;;;;232.38;64.18;;;;;;;;;;4994527;28;20172;-45
2024/02/15 00:23:37;;;;;;;231.32;63.05;;;;;;;;;;4994297;28;20178;-45
2024/02/15 00:26:03;;;;;;;230.87;64.27;;;;;;;;;;4994127;28;20190;-45
2024/02/15 00:28:29;;;;;;;232.67;64.17;;;;;;;;;;4993989;28;20470;-45
2024/02/15 00:30:54;;;;;;;230.57;62.73;;;;;;;;;;4994584;28;20425;-45
2024/02/15 00:33:22;;;;;;;233.33;64.53;;;;;;;;;;4994137;28;20421;-46
2024/02/15 00:35:51;;;;;;;230.63;61.95;;;;;;;;;;4993967;28;20437;-45
2024/02/15 00:38:17;;;;;;;235.85;66.07;;;;;;;;;;4990701;28;20717;-45
2024/02/15 00:40:43;;;;;;;231.57;64.28;;;;;;;;;;4994127;28;20179;-45
2024/02/15 00:43:09;;;;;;;231.03;64.73;;;;;;;;;;4994293;28;20191;-45
2024/02/15 00:45:35;;;;;;;232.23;64.47;;;;;;;;;;4993664;28;20421;-45
2024/02/15 00:48:01;;;;;;;229.90;63.50;;;;;;;;;;4993800;28;20461;-46
2024/02/15 00:50:27;;;;;;;229.80;62.47;;;;;;;;;;4993689;28;20795;-45
2024/02/15 00:52:53;;;;;;;229.57;61.97;;;;;;;;;;4994271;28;20803;-45
2024/02/15 00:55:20;;;;;;;232.67;65.57;;;;;;;;;;4993413;28;20442;-45
2024/02/15 00:57:46;;;;;;;230.85;64.03;;;;;;;;;;4993709;28;20416;-45
2024/02/15 01:00:12;;;;;;;230.33;63.93;;;;;;;;;;4993589;28;20296;-46
2024/02/15 01:02:39;;;;;;;230.77;64.70;;;;;;;;;;4993710;28;20912;-46
2024/02/15 01:05:05;;;;;;;242.10;73.55;;;;;;;;;;4994067;28;20555;-45
2024/02/15 01:07:31;;;;;;;232.65;64.72;;;;;;;;;;4990569;28;20195;-45
2024/02/15 01:09:58;;;;;;;230.50;62.30;;;;;;;;;;4993286;28;20632;-46
2024/02/15 01:12:24;;;;;;;232.00;62.38;;;;;;;;;;4993194;28;20478;-45
2024/02/15 01:14:50;;;;;;;231.20;62.40;;;;;;;;;;4992784;28;20679;-45
2024/02/15 01:17:17;;;;;;;230.47;63.93;;;;;;;;;;4997285;28;20251;-45
2024/02/15 01:19:44;;;;;;;230.38;62.28;;;;;;;;;;4993093;28;20448;-45
2024/02/15 01:22:10;;;;;;;231.68;64.43;;;;;;;;;;4993098;28;20174;-45
2024/02/15 01:24:35;;;;;;;230.27;61.60;;;;;;;;;;4993301;28;20182;-46
2024/02/15 01:27:01;;;;;;;232.23;64.23;;;;;;;;;;4992063;28;20468;-45
2024/02/15 01:29:27;;;;;;;230.53;62.87;;;;;;;;;;4993023;28;20459;-46
2024/02/15 01:31:53;;;;;;;231.87;64.20;;;;;;;;;;4992892;28;20413;-45
2024/02/15 01:34:19;;;;;;;231.97;63.87;;;;;;;;;;4992911;28;20496;-45
2024/02/15 01:36:48;;;;;;;232.75;65.55;;;;;;;;;;4992856;28;20899;-45
2024/02/15 01:39:14;;;;;;;228.60;60.92;;;;;;;;;;4992737;28;20584;-46
2024/02/15 01:41:40;;;;;;;231.63;63.90;;;;;;;;;;4993035;28;20265;-45
2024/02/15 01:44:06;;;;;;;231.07;62.30;;;;;;;;;;4992789;28;20426;-45
2024/02/15 01:46:33;;;;;;;233.13;64.30;;;;;;;;;;4992186;28;20453;-45
2024/02/15 01:48:59;;;;;;;234.05;66.50;;;;;;;;;;4992509;28;20197;-45
2024/02/15 01:51:26;;;;;;;234.82;65.93;;;;;;;;;;4992527;28;20556;-45
2024/02/15 01:53:53;;;;;;;232.07;62.88;;;;;;;;;;4992607;28;20175;-45
2024/02/15 01:56:20;;;;;;;232.50;63.58;;;;;;;;;;4992411;28;20231;-45
2024/02/15 01:58:46;;;;;;;232.38;63.80;;;;;;;;;;4992109;28;20214;-45
2024/02/15 02:01:12;;;;;;;232.20;65.00;;;;;;;;;;4992057;28;20354;-45
2024/02/15 02:03:39;;;;;;;232.45;64.30;;;;;;;;;;4991506;28;20527;-45
2024/02/15 02:06:05;;;;;;;231.05;62.38;;;;;;;;;;4991891;28;20181;-45
2024/02/15 02:08:31;;;;;;;230.87;62.40;;;;;;;;;;4991775;28;20223;-45
2024/02/15 02:10:57;;;;;;;231.47;62.63;;;;;;;;;;4992426;28;20424;-45
2024/02/15 02:13:24;;;;;;;235.90;65.95;;;;;;;;;;4992246;28;20473;-45
2024/02/15 02:15:50;;;;;;;234.35;66.13;;;;;;;;;;4991793;28;20706;-45
2024/02/15 02:18:16;;;;;;;233.65;64.38;;;;;;;;;;4990367;28;20188;-45
2024/02/15 02:20:42;;;;;;;230.17;62.30;;;;;;;;;;4992029;28;20182;-45
2024/02/15 02:23:13;;;;;;;231.43;61.95;;;;;;;;;;4992008;28;20913;-45
2024/02/15 02:25:42;;;;;;;234.82;66.35;;;;;;;;;;4988750;28;20179;-45
2024/02/15 02:28:08;;;;;;;232.40;64.15;;;;;;;;;;4991425;28;20251;-45
2024/02/15 02:30:34;;;;;;;233.80;64.50;;;;;;;;;;4991758;28;20211;-45
2024/02/15 02:33:01;;;;;;;232.32;63.90;;;;;;;;;;4992092;28;20714;-45
2024/02/15 02:35:29;;;;;;;234.60;66.80;;;;;;;;;;4991718;28;20579;-45
2024/02/15 02:37:56;;;;;;;235.38;66.93;;;;;;;;;;4991647;28;20183;-45
2024/02/15 02:40:22;;;;;;;234.48;66.60;;;;;;;;;;4991624;28;20230;-45
2024/02/15 02:43:01;;;;;;;236.40;67.85;;;;;;;;;;4991647;28;20234;-45
2024/02/15 02:45:27;;;;;;;235.77;66.55;;;;;;;;;;4991104;28;20220;-45
2024/02/15 02:47:53;;;;;;;236.13;67.97;;;;;;;;;;4991265;28;20214;-45
2024/02/15 02:50:20;;;;;;;232.50;64.18;;;;;;;;;;4991448;28;20247;-45
2024/02/15 02:52:48;;;;;;;232.88;64.18;;;;;;;;;;4991578;28;20305;-45
2024/02/15 02:55:14;;;;;;;238.52;70.22;;;;;;;;;;4991327;28;20583;-45
2024/02/15 02:57:40;;;;;;;234.93;66.95;;;;;;;;;;4988603;28;20527;-45
2024/02/15 03:00:16;;;;;;;234.55;64.80;;;;;;;;;;4991871;28;20209;-45
2024/02/15 03:02:43;;;;;;;233.70;64.03;;;;;;;;;;4989466;28;20193;-45
2024/02/15 03:05:11;;;;;;;238.57;69.45;;;;;;;;;;4991207;28;20177;-45
2024/02/15 03:07:37;;;;;;;234.27;65.80;;;;;;;;;;4990830;28;20232;-45
2024/02/15 03:10:13;;;;;;;235.50;68.40;;;;;;;;;;4991476;28;20225;-45
2024/02/15 03:12:39;;;;;;;236.50;68.82;;;;;;;;;;4991694;28;20400;-45
2024/02/15 03:15:11;;;;;;;236.02;66.78;;;;;;;;;;4991116;28;20177;-45
2024/02/15 03:17:38;;;;;;;233.70;66.38;;;;;;;;;;4991584;28;20234;-46
2024/02/15 03:20:10;;;;;;;234.07;64.68;;;;;;;;;;4991507;28;20193;-45
2024/02/15 03:22:37;;;;;;;234.40;66.30;;;;;;;;;;4991410;28;20178;-45
2024/02/15 03:25:07;;;;;;;234.00;67.80;;;;;;;;;;4991525;28;20638;-45
2024/02/15 03:27:33;;;;;;;234.32;65.25;;;;;;;;;;4991132;28;20224;-45
2024/02/15 03:30:00;;;;;;;233.10;65.07;;;;;;;;;;4991385;28;20198;-45
2024/02/15 03:32:26;;;;;;;232.90;64.38;;;;;;;;;;4991238;28;20402;-45
2024/02/15 03:34:54;;;;;;;232.37;64.37;;;;;;;;;;4991316;28;20275;-46
2024/02/15 03:37:20;;;;;;;233.25;65.60;;;;;;;;;;4990873;28;20928;-45
2024/02/15 03:39:46;;;;;;;233.02;66.68;;;;;;;;;;4993632;28;20662;-45
2024/02/15 03:42:12;;;;;;;233.38;65.28;;;;;;;;;;4995273;28;20258;-45
2024/02/15 03:44:41;;;;;;;234.25;67.53;;;;;;;;;;4995049;28;20176;-45
2024/02/15 03:47:07;;;;;;;232.65;65.32;;;;;;;;;;4994818;28;20198;-45
2024/02/15 03:49:33;;;;;;;233.52;65.20;;;;;;;;;;4994935;28;20201;-45
2024/02/15 03:52:02;;;;;;;234.77;66.70;;;;;;;;;;4994917;28;20237;-45
2024/02/15 03:54:29;;;;;;;236.35;68.88;;;;;;;;;;4995003;28;20709;-45
2024/02/15 03:56:57;;;;;;;234.57;65.30;;;;;;;;;;4994811;28;20552;-45
2024/02/15 03:59:26;;;;;;;232.93;65.57;;;;;;;;;;4994823;28;20606;-45
2024/02/15 04:01:53;;;;;;;233.00;65.90;;;;;;;;;;4995015;28;20182;-45
2024/02/15 04:04:22;;;;;;;233.63;65.85;;;;;;;;;;4994824;28;20193;-45
2024/02/15 04:09:52;;;;;;;233.40;64.10;;;;;;;;;;4994885;28;20196;-45
2024/02/15 04:12:18;;;;;;;233.00;66.03;;;;;;;;;;4994454;28;20171;-45
2024/02/15 04:14:47;;;;;;;237.37;68.20;;;;;;;;;;4994554;28;20183;-45
2024/02/15 04:17:16;;;;;;;233.15;65.90;;;;;;;;;;4994243;28;20412;-45
2024/02/15 04:19:43;;;;;;;232.60;64.55;;;;;;;;;;4994441;28;20202;-45
2024/02/15 04:22:10;;;;;;;234.15;67.25;;;;;;;;;;4994600;28;20185;-45
2024/02/15 04:24:39;;;;;;;233.77;65.10;;;;;;;;;;4994585;28;20174;-45
2024/02/15 04:27:07;;;;;;;233.52;66.35;;;;;;;;;;4994149;28;20203;-45
2024/02/15 04:29:33;;;;;;;234.38;67.10;;;;;;;;;;4994196;28;20247;-45
2024/02/15 04:31:59;;;;;;;235.33;65.63;;;;;;;;;;4994213;28;20180;-45
2024/02/15 04:34:25;;;;;;;233.97;65.70;;;;;;;;;;4994126;28;20413;-45
2024/02/15 04:36:55;;;;;;;234.60;66.95;;;;;;;;;;4993852;28;20410;-45
2024/02/15 04:39:26;;;;;;;234.55;65.60;;;;;;;;;;4993908;28;20327;-46
2024/02/15 04:41:52;;;;;;;234.85;65.63;;;;;;;;;;4994126;28;20215;-45
2024/02/15 04:44:20;;;;;;;235.38;66.38;;;;;;;;;;4994016;28;20529;-46
2024/02/15 04:46:46;;;;;;;239.00;68.45;;;;;;;;;;4993820;28;20580;-45
2024/02/15 04:49:13;;;;;;;236.98;68.55;;;;;;;;;;4994290;28;20213;-45
2024/02/15 04:51:40;;;;;;;237.07;66.85;;;;;;;;;;4993666;28;20180;-45
2024/02/15 04:54:07;;;;;;;237.43;67.43;;;;;;;;;;4993841;28;20193;-45
2024/02/15 04:56:33;;;;;;;238.30;69.07;;;;;;;;;;4993784;28;20177;-45
2024/02/15 04:58:59;;;;;;;235.23;66.17;;;;;;;;;;4993625;28;20230;-45
2024/02/15 05:01:25;;;;;;;237.10;67.63;;;;;;;;;;4993755;28;20787;-45
2024/02/15 05:03:51;;;;;;;235.80;66.77;;;;;;;;;;4994421;28;20206;-46
2024/02/15 05:06:17;;;;;;;233.07;65.40;;;;;;;;;;4993509;28;20416;-45
2024/02/15 05:08:43;;;;;;;235.23;66.27;;;;;;;;;;4993460;28;20992;-45
2024/02/15 05:11:17;;;;;;;235.18;66.32;;;;;;;;;;4993578;28;20777;-45
2024/02/15 05:13:46;;;;;;;236.93;66.25;;;;;;;;;;4994023;28;20178;-45
2024/02/15 05:16:13;;;;;;;237.00;66.97;;;;;;;;;;4993260;28;20559;-45
2024/02/15 05:18:42;;;;;;;236.15;66.57;;;;;;;;;;4993327;28;20195;-45
2024/02/15 05:21:11;;;;;;;239.98;69.97;;;;;;;;;;4993308;28;20193;-45
2024/02/15 05:23:39;;;;;;;236.80;67.07;;;;;;;;;;4993273;28;20557;-45
2024/02/15 05:26:05;;;;;;;234.82;64.90;;;;;;;;;;4993099;28;20177;-45
2024/02/15 05:28:32;;;;;;;237.68;66.97;;;;;;;;;;4993128;28;20802;-45
2024/02/15 05:31:10;;;;;;;235.82;66.97;;;;;;;;;;4993342;28;20229;-45
2024/02/15 05:33:40;;;;;;;237.10;67.90;;;;;;;;;;4992670;28;20182;-45
2024/02/15 05:36:08;;;;;;;237.55;68.80;;;;;;;;;;4993106;28;20177;-45
2024/02/15 05:38:34;;;;;;;236.98;68.88;;;;;;;;;;4993032;28;20305;-45
2024/02/15 05:41:00;;;;;;;237.40;68.80;;;;;;;;;;4992964;28;20270;-45
2024/02/15 05:43:26;;;;;;;239.47;69.07;;;;;;;;;;4992920;28;20412;-45
2024/02/15 05:45:52;;;;;;;238.15;67.95;;;;;;;;;;4993061;28;20829;-45
2024/02/15 05:48:19;;;;;;;238.17;68.27;;;;;;;;;;4992589;28;20641;-45
2024/02/15 05:50:46;;;;;;;239.02;71.18;;;;;;;;;;4993119;28;20460;-45
2024/02/15 05:53:12;;;;;;;239.38;71.35;;;;;;;;;;4992850;28;20601;-45
2024/02/15 05:55:40;;;;;;;233.53;64.90;;;;;;;;;;4992521;28;20205;-45
2024/02/15 05:58:09;;;;;;;239.98;69.75;;;;;;;;;;4992536;28;20444;-45
2024/02/15 06:00:35;;;;;;;243.02;72.70;;;;;;;;;;4991297;28;20217;-45
2024/02/15 06:03:02;;;;;;;236.73;66.70;;;;;;;;;;4990544;28;20190;-45
2024/02/15 06:05:28;;;;;;;238.82;68.93;;;;;;;;;;4991989;28;20414;-45
2024/02/15 06:07:54;;;;;;;236.97;68.30;;;;;;;;;;4991484;28;20753;-45
2024/02/15 06:10:20;;;;;;;237.57;68.87;;;;;;;;;;4991397;28;20766;-45
2024/02/15 06:12:46;;;;;;;241.15;71.63;;;;;;;;;;4991984;28;20422;-45
2024/02/15 06:15:15;;;;;;;247.73;75.13;;;;;;;;;;4991068;28;20170;-45
2024/02/15 06:17:43;;;;;;;237.90;69.32;;;;;;;;;;4991583;28;20439;-45
2024/02/15 06:20:11;;;;;;;239.45;69.45;;;;;;;;;;4991654;28;20294;-45
2024/02/15 06:22:38;;;;;;;239.13;69.53;;;;;;;;;;4991445;28;20251;-45
2024/02/15 06:25:05;;;;;;;237.77;68.25;;;;;;;;;;4991162;28;20261;-45
2024/02/15 06:27:31;;;;;;;239.85;68.47;;;;;;;;;;4991185;28;20199;-45
2024/02/15 06:40:58;;;;;;;239.88;69.53;;;;;;;;;;4990577;28;20678;-45
2024/02/15 06:43:27;;;;;;;242.27;71.65;;;;;;;;;;4991136;28;20179;-45
2024/02/15 06:45:53;;;;;;;237.40;66.45;;;;;;;;;;4992490;28;20220;-45
2024/02/15 06:48:19;;;;;;;237.27;67.50;;;;;;;;;;4989027;28;20662;-45
2024/02/15 06:50:48;;;;;;;238.07;65.83;;;;;;;;;;4991359;28;20808;-45
2024/02/15 06:53:14;;;;;;;236.80;68.50;;;;;;;;;;4990743;28;20423;-45
2024/02/15 06:55:40;;;;;;;237.68;66.07;;;;;;;;;;4991009;28;20270;-45
2024/02/15 06:58:06;;;;;;;235.95;65.97;;;;;;;;;;4991421;28;20306;-45
2024/02/15 07:00:32;;;;;;;235.97;65.20;;;;;;;;;;4991146;28;20761;-45
2024/02/15 07:02:58;;;;;;;238.00;66.13;;;;;;;;;;4991267;28;20424;-45
2024/02/15 07:05:24;;;;;;;238.90;67.30;;;;;;;;;;4991072;28;21076;-45
2024/02/15 07:07:50;;;;;;;237.93;68.33;;;;;;;;;;4990535;28;20466;-45
2024/02/15 07:10:16;;;;;;;236.77;66.63;;;;;;;;;;4987142;28;20431;-45
2024/02/15 07:12:43;;;;;;;235.32;63.95;;;;;;;;;;4990754;28;20455;-45
2024/02/15 07:15:09;;;;;;;240.70;68.22;;;;;;;;;;4991159;28;20207;-45
2024/02/15 07:17:39;;;;;;;238.07;66.53;;;;;;;;;;4991216;28;20238;-45
2024/02/15 07:20:06;;;;;;;238.35;66.82;;;;;;;;;;4991568;28;20198;-45
2024/02/15 07:22:32;;;;;;;238.05;68.13;;;;;;;;;;4991466;28;20173;-45
2024/02/15 07:24:58;;;;;;;239.30;67.37;;;;;;;;;;4991172;28;20180;-45
2024/02/15 07:27:25;;;;;;;236.80;66.65;;;;;;;;;;4991059;28;20540;-45
2024/02/15 07:29:51;;;;;;;236.00;64.40;;;;;;;;;;4991203;28;20210;-45
2024/02/15 07:32:17;;;;;;;238.77;66.72;;;;;;;;;;4991148;28;20185;-45
2024/02/15 07:34:45;;;;;;;235.18;64.03;;;;;;;;;;4991240;28;20176;-45
2024/02/15 07:37:12;;;;;;;237.00;66.25;;;;;;;;;;4991019;28;20190;-45
2024/02/15 07:39:40;;;;;;;233.80;63.97;;;;;;;;;;4991137;28;20579;-46
2024/02/15 07:42:08;;;;;;;235.60;64.63;;;;;;;;;;4991411;28;20179;-45
2024/02/15 07:44:36;;;;;;;235.35;63.90;;;;;;;;;;4991247;28;20186;-45
2024/02/15 07:47:02;;;;;;;235.25;64.43;;;;;;;;;;4985832;28;20196;-45
2024/02/15 07:49:28;;;;;;;235.45;63.70;;;;;;;;;;4991019;28;20229;-45
2024/02/15 07:51:54;;;;;;;234.25;64.55;;;;;;;;;;4991005;28;20181;-45
2024/02/15 07:54:20;;;;;;;235.67;62.97;;;;;;;;;;4991077;28;20231;-45
2024/02/15 07:56:48;;;;;;;237.55;66.60;;;;;;;;;;4990735;28;20503;-45
2024/02/15 07:59:16;;;;;;;236.20;65.35;;;;;;;;;;4990722;28;20201;-45
2024/02/15 08:01:43;;;;;;;235.95;64.93;;;;;;;;;;4980710;28;20176;-45
2024/02/15 08:04:09;;;;;;;238.43;67.55;;;;;;;;;;4991102;28;20184;-45
2024/02/15 08:06:37;;;;;;;236.40;64.68;;;;;;;;;;4990924;28;20203;-45
2024/02/15 08:09:06;;;;;;;237.43;66.05;;;;;;;;;;4991005;28;20200;-50
2024/02/15 08:11:32;;;;;;;236.18;63.40;;;;;;;;;;4991067;28;20180;-45
2024/02/15 08:13:59;;;;;;;235.63;63.27;;;;;;;;;;4991094;28;20179;-45
2024/02/15 08:16:28;;;;;;;236.98;65.63;;;;;;;;;;4990723;28;20406;-46
2024/02/15 08:18:54;;;;;;;237.10;65.30;;;;;;;;;;4990889;28;20256;-46
2024/02/15 08:21:28;;;;;;;236.90;64.80;;;;;;;;;;4991160;28;20193;-46
2024/02/15 08:23:55;;;;;;;240.18;71.93;;;;;;;;;;4990957;28;20260;-46
2024/02/15 08:26:21;;;;;;;237.70;66.85;;;;;;;;;;4993647;28;20266;-46
2024/02/15 08:28:47;;;;;;;234.67;65.47;;;;;;;;;;4994549;28;20731;-46
2024/02/15 08:31:15;;;;;;;234.53;63.57;;;;;;;;;;4994348;28;20790;-46
2024/02/15 08:33:44;;;;;;;233.98;63.28;;;;;;;;;;4994550;28;20415;-46
2024/02/15 08:36:10;;;;;;;236.52;64.43;;;;;;;;;;4994100;28;20185;-46
2024/02/15 08:38:37;;;;;;;235.13;64.07;;;;;;;;;;4994156;28;20206;-46
2024/02/15 08:41:04;;;;;;;234.85;65.68;;;;;;;;;;4994310;28;20414;-46
2024/02/15 08:43:33;;;;;;;233.98;63.95;;;;;;;;;;4994151;28;20690;-46
2024/02/15 08:46:01;;;;;;;236.82;65.90;;;;;;;;;;4994186;28;20210;-46
2024/02/15 08:48:27;;;;;;;232.85;64.68;;;;;;;;;;4993976;28;20699;-46
2024/02/15 08:50:54;;;;;;;235.43;66.25;;;;;;;;;;4994321;28;20182;-46
2024/02/15 08:53:21;;;;;;;237.20;65.88;;;;;;;;;;4994051;28;20230;-46
2024/02/15 08:55:47;;;;;;;232.43;62.38;;;;;;;;;;4993722;28;20772;-46
2024/02/15 08:58:13;;;;;;;234.90;63.63;;;;;;;;;;4993212;28;20266;-46
2024/02/15 09:00:44;;;;;;;236.23;67.90;;;;;;;;;;4992406;28;20326;-46
2024/02/15 09:03:10;;;;;;;234.07;63.22;;;;;;;;;;4993706;28;20420;-46
2024/02/15 09:05:36;;;;;;;234.07;64.55;;;;;;;;;;4993204;28;20175;-46
2024/02/15 09:08:04;;;;;;;234.35;62.65;;;;;;;;;;4993480;28;20306;-46
2024/02/15 09:10:30;;;;;;;236.40;65.60;;;;;;;;;;4993393;28;20199;-46
2024/02/15 09:12:56;;;;;;;234.23;63.33;;;;;;;;;;4994070;28;20183;-46
2024/02/15 09:15:22;;;;;;;234.50;64.13;;;;;;;;;;4993217;28;20179;-45
2024/02/15 09:17:49;;;;;;;233.05;61.53;;;;;;;;;;4993305;28;20176;-45
2024/02/15 09:20:17;;;;;;;237.13;66.65;;;;;;;;;;4993282;28;20232;-46
2024/02/15 09:22:56;;;;;;;237.15;66.50;;;;;;;;;;4993344;28;20183;-46
2024/02/15 09:25:26;;;;;;;237.25;66.88;;;;;;;;;;4992864;28;20184;-46
2024/02/15 09:27:55;;;;;;;236.60;66.53;;;;;;;;;;4993155;28;20202;-46
2024/02/15 09:30:24;;;;;;;232.60;63.25;;;;;;;;;;4993115;28;20564;-45
2024/02/15 09:32:50;;;;;;;236.10;64.75;;;;;;;;;;4993265;28;20176;-45
2024/02/15 09:35:16;;;;;;;239.10;67.03;;;;;;;;;;4993072;28;20197;-46
2024/02/15 09:37:48;;;;;;;233.27;62.07;;;;;;;;;;4991809;28;20187;-45
2024/02/15 09:40:16;;;;;;;237.70;66.93;;;;;;;;;;4992334;28;20526;-46
2024/02/15 09:42:44;;;;;;;235.02;64.88;;;;;;;;;;4992776;28;20552;-45
2024/02/15 09:45:10;;;;;;;238.68;66.43;;;;;;;;;;4992648;28;20363;-46
2024/02/15 09:47:37;;;;;;;236.40;65.70;;;;;;;;;;4992617;28;20203;-46
2024/02/15 09:50:06;;;;;;;239.40;67.78;;;;;;;;;;4993120;28;20721;-46
2024/02/15 09:52:35;;;;;;;240.63;68.03;;;;;;;;;;4991640;28;20184;-46
2024/02/15 09:55:02;;;;;;;237.50;67.72;;;;;;;;;;4992244;28;20171;-46
2024/02/15 09:57:29;;;;;;;238.88;67.35;;;;;;;;;;4991679;28;20204;-45
2024/02/15 09:59:55;;;;;;;239.13;68.18;;;;;;;;;;4992315;28;20236;-45
2024/02/15 10:02:21;;;;;;;241.20;70.17;;;;;;;;;;4992488;28;20587;-46
2024/02/15 10:04:47;;;;;;;242.90;73.10;;;;;;;;;;4992317;28;20967;-46
2024/02/15 10:07:14;;;;;;;240.18;70.43;;;;;;;;;;4992100;28;20203;-46
2024/02/15 10:09:42;;;;;;;244.15;73.70;;;;;;;;;;4992412;28;20193;-46
2024/02/15 10:12:09;;;;;;;249.38;81.45;;;;;;;;;;4992385;28;20177;-45
2024/02/15 10:14:35;;;;;;;243.63;74.47;;;;;;;;;;4992271;28;20180;-46
2024/02/15 10:17:11;;;;;;;240.77;71.18;;;;;;;;;;4990843;28;20233;-45
2024/02/15 10:19:42;;;;;;;244.18;74.95;;;;;;;;;;4992025;28;20286;-45
2024/02/15 10:22:09;;;;;;;243.68;72.60;;;;;;;;;;4992370;28;20222;-45
2024/02/15 10:24:35;;;;;;;241.48;73.40;;;;;;;;;;4992178;28;20582;-46
2024/02/15 10:27:03;;;;;;;242.50;73.95;;;;;;;;;;4991733;28;20200;-45
2024/02/15 10:29:30;;;;;;;245.07;76.00;;;;;;;;;;4992306;28;20212;-46
2024/02/15 10:32:00;;;;;;;242.80;72.70;;;;;;;;;;4991767;28;20256;-46
2024/02/15 10:34:27;;;;;;;245.05;77.50;;;;;;;;;;4991884;28;20201;-45
2024/02/15 10:36:56;;;;;;;245.40;76.32;;;;;;;;;;4991763;28;20349;-45
2024/02/15 10:39:23;;;;;;;247.05;78.07;;;;;;;;;;4991303;28;20192;-46
2024/02/15 10:41:54;;;;;;;244.63;74.13;;;;;;;;;;4990360;28;20179;-46
2024/02/15 10:44:24;;;;;;;242.55;73.88;;;;;;;;;;4989788;28;20187;-45
2024/02/15 10:46:51;;;;;;;247.60;77.32;;;;;;;;;;4991158;28;20543;-46
2024/02/15 10:49:21;;;;;;;244.57;73.88;;;;;;;;;;4991241;28;20202;-46
2024/02/15 10:51:50;;;;;;;247.27;79.07;;;;;;;;;;4990886;28;20177;-45
2024/02/15 10:54:19;;;;;;;243.60;74.25;;;;;;;;;;4991527;28;20195;-46
2024/02/15 10:56:48;;;;;;;249.25;82.07;;;;;;;;;;4991330;28;20218;-46
2024/02/15 10:59:20;;;;;;;244.55;75.32;;;;;;;;;;4991448;28;20239;-46
2024/02/15 11:01:50;;;;;;;248.20;80.25;;;;;;;;;;4991499;28;20172;-46
2024/02/15 11:04:21;;;;;;;250.85;82.18;;;;;;;;;;4990987;28;20226;-45
2024/02/15 11:06:50;;;;;;;250.52;81.60;;;;;;;;;;4991342;28;20652;-46
2024/02/15 11:09:16;;;;;;;250.07;81.20;;;;;;;;;;4991257;28;20555;-45
2024/02/15 11:11:44;;;;;;;248.88;81.18;;;;;;;;;;4991562;28;20551;-45
2024/02/15 11:14:29;;;;;;;249.18;82.75;;;;;;;;;;4991053;28;20165;-46
2024/02/15 11:16:56;;;;;;;248.07;79.60;;;;;;;;;;4990092;28;20173;-45
2024/02/15 11:19:38;;;;;;;244.52;75.88;;;;;;;;;;4991377;28;20588;-45
2024/02/15 11:22:13;;;;;;;249.52;82.90;;;;;;;;;;4986495;28;20549;-45
2024/02/15 11:24:46;;;;;;;245.77;76.47;;;;;;;;;;4991383;28;20161;-45
2024/02/15 11:27:14;;;;;;;249.63;82.68;;;;;;;;;;4991134;28;20198;-45
2024/02/15 11:29:51;;;;;;;248.73;80.78;;;;;;;;;;4991574;28;20213;-45
2024/02/15 11:32:36;;;;;;;245.18;78.32;;;;;;;;;;4991191;28;20247;-45
2024/02/15 11:35:13;;;;;;;248.43;80.30;;;;;;;;;;4991120;28;20236;-45
2024/02/15 11:37:55;;;;;;;246.50;77.97;;;;;;;;;;4991056;28;20171;-45
2024/02/15 11:40:24;;;;;;;248.07;80.90;;;;;;;;;;4991230;28;20566;-45
2024/02/15 11:42:59;;;;;;;248.63;80.82;;;;;;;;;;4991643;28;20181;-45
2024/02/15 11:45:25;;;;;;;248.70;82.35;;;;;;;;;;4990879;28;20226;-45
2024/02/15 11:47:52;;;;;;;255.48;88.03;;;;;;;;;;4985127;28;20560;-46
2024/02/15 11:50:18;;;;;;;249.93;81.70;;;;;;;;;;4988428;28;20200;-46
2024/02/15 11:52:48;;;;;;;249.75;81.55;;;;;;;;;;4991242;28;20172;-45
2024/02/15 11:55:15;;;;;;;254.27;90.05;;;;;;;;;;4990309;28;20709;-45
2024/02/15 11:57:53;;;;;;;245.70;77.97;;;;;;;;;;4991080;28;20553;-45
2024/02/15 12:20:11;;;;;;;251.65;83.60;;;;;;;;;;4971747;28;20605;-45
2024/02/15 12:22:41;;;;;;;252.82;85.55;;;;;;;;;;4992204;28;20209;-45
2024/02/15 12:25:11;;;;;;;260.13;91.88;;;;;;;;;;4993669;28;20601;-45
2024/02/15 12:27:44;;;;;;;254.88;89.55;;;;;;;;;;4994300;28;20293;-45
2024/02/15 12:30:13;;;;;;;259.05;93.82;;;;;;;;;;4993837;28;20244;-45
2024/02/15 12:32:39;;;;;;;257.35;90.63;;;;;;;;;;4994211;28;20193;-46
2024/02/15 12:35:16;;;;;;;257.37;90.30;;;;;;;;;;4994063;28;20747;-45
2024/02/15 12:37:46;;;;;;;259.00;97.40;;;;;;;;;;4994350;28;20491;-45
2024/02/15 12:40:17;;;;;;;255.80;90.72;;;;;;;;;;4994719;28;20274;-45
2024/02/15 12:42:50;;;;;;;263.73;100.50;;;;;;;;;;4993728;28;20173;-45
2024/02/15 12:45:20;;;;;;;264.05;100.55;;;;;;;;;;4990204;28;20184;-45
2024/02/15 12:47:53;;;;;;;259.35;95.35;;;;;;;;;;4991743;28;20193;-45
2024/02/15 12:50:21;;;;;;;262.05;98.38;;;;;;;;;;4992627;28;20676;-45
2024/02/15 12:52:47;;;;;;;258.13;95.50;;;;;;;;;;4992814;28;20349;-45
2024/02/15 12:55:14;;;;;;;263.63;101.20;;;;;;;;;;4992799;28;20206;-45
2024/02/15 12:57:50;;;;;;;261.88;99.25;;;;;;;;;;4993667;28;20653;-45
2024/02/15 13:00:17;;;;;;;260.23;96.95;;;;;;;;;;4992795;28;20627;-45
2024/02/15 13:02:44;;;;;;;265.67;101.97;;;;;;;;;;4993877;28;20619;-45
2024/02/15 13:05:11;;;;;;;263.80;101.77;;;;;;;;;;4993660;28;20184;-45
2024/02/15 13:07:38;;;;;;;266.27;98.00;;;;;;;;;;4993808;28;20509;-46
2024/02/15 13:10:06;;;;;;;264.70;101.40;;;;;;;;;;4993611;28;20196;-45
2024/02/15 13:12:34;;;;;;;268.60;103.72;;;;;;;;;;4993388;28;20174;-45
2024/02/15 13:15:00;;;;;;;261.37;97.97;;;;;;;;;;4993386;28;20181;-45
2024/02/15 13:17:26;;;;;;;264.67;103.50;;;;;;;;;;4993543;28;20513;-45
2024/02/15 13:20:02;;;;;;;264.17;103.63;;;;;;;;;;4993348;28;20438;-45
2024/02/15 13:22:28;;;;;;;270.67;109.03;;;;;;;;;;4993350;28;20426;-45
2024/02/15 13:24:55;;;;;;;265.40;104.13;;;;;;;;;;4993316;28;20933;-45
2024/02/15 13:27:23;;;;;;;265.10;101.75;;;;;;;;;;4993186;28;20459;-46
2024/02/15 13:29:49;;;;;;;263.98;101.85;;;;;;;;;;4993330;28;20223;-45
2024/02/15 13:32:16;;;;;;;259.33;97.27;;;;;;;;;;4993152;28;20176;-45
2024/02/15 13:34:44;;;;;;;261.47;99.70;;;;;;;;;;4993073;28;20483;-45
2024/02/15 13:37:13;;;;;;;263.33;104.43;;;;;;;;;;4992889;28;20417;-45
2024/02/15 13:39:45;;;;;;;258.90;95.45;;;;;;;;;;4984963;28;20439;-45
2024/02/15 13:42:11;;;;;;;264.00;106.70;;;;;;;;;;4993172;28;20267;-45
2024/02/15 13:44:37;;;;;;;260.70;102.17;;;;;;;;;;4992903;28;20328;-45
2024/02/15 13:47:05;;;;;;;259.43;100.93;;;;;;;;;;4992609;28;20431;-45
2024/02/15 13:49:34;;;;;;;259.87;101.37;;;;;;;;;;4992818;28;20425;-45
2024/02/15 13:52:04;;;;;;;254.75;94.50;;;;;;;;;;4993044;28;20413;-45
2024/02/15 13:54:30;;;;;;;254.50;92.72;;;;;;;;;;4992948;28;20536;-45
2024/02/15 13:56:56;;;;;;;258.13;97.03;;;;;;;;;;4992481;28;20175;-46
2024/02/15 13:59:25;;;;;;;262.13;103.63;;;;;;;;;;4992436;28;20605;-45
2024/02/15 14:01:53;;;;;;;262.33;103.03;;;;;;;;;;4988059;28;20426;-45
2024/02/15 14:04:19;;;;;;;259.10;101.43;;;;;;;;;;4992255;28;20539;-45
2024/02/15 14:06:45;;;;;;;261.17;102.63;;;;;;;;;;4992037;28;20643;-45
2024/02/15 14:09:12;;;;;;;255.23;96.13;;;;;;;;;;4990933;28;20458;-45
2024/02/15 14:11:38;;;;;;;254.53;93.90;;;;;;;;;;4992308;28;20410;-45
2024/02/15 14:14:06;;;;;;;257.03;99.93;;;;;;;;;;4992959;28;20918;-45
2024/02/15 14:16:33;;;;;;;258.47;94.67;;;;;;;;;;4992045;28;20405;-45
2024/02/15 14:18:59;;;;;;;255.45;95.50;;;;;;;;;;4991790;28;20817;-45
2024/02/15 14:21:25;;;;;;;255.90;93.33;;;;;;;;;;4991452;28;20187;-45
2024/02/15 14:23:51;;;;;;;253.60;92.20;;;;;;;;;;4991704;28;20456;-45
2024/02/15 14:26:18;;;;;;;256.83;95.82;;;;;;;;;;4991970;28;20185;-45
2024/02/15 14:28:44;;;;;;;254.35;91.65;;;;;;;;;;4991865;28;20697;-45
2024/02/15 14:34:00;;;;;;;257.48;95.15;;;;;;;;;;4991928;28;20200;-45
2024/02/15 14:36:27;;;;;;;253.68;90.60;;;;;;;;;;4991707;28;20180;-45
2024/02/15 14:38:54;;;;;;;254.27;92.43;;;;;;;;;;4988435;28;20588;-45
2024/02/15 14:41:22;;;;;;;252.43;89.30;;;;;;;;;;4991970;28;20180;-45
2024/02/15 14:43:47;;;;;;;255.98;94.30;;;;;;;;;;4991831;28;20211;-45